Time;durP1;ratioP1;P1;durP2;ratioP2;P2;SDS_P1;SDS_P2;PMS_P1;PMS_P2;Temp;Humidity;BMP_temperature;BMP_pressure;BME280_temperature;BME280_humidity;BME280_pressure;Samples;Min_cycle;Max_cycle;Signal;HPM_P1;HPM_P2
2022/08/22 00:00:15;;;;;;;5.70;2.20;;;;;19.00;96730.00;;;;110797;1250;41165;-71
2022/08/22 00:03:02;;;;;;;5.90;2.30;;;;;19.00;96731.00;;;;110712;1250;40743;-72
2022/08/22 00:05:55;;;;;;;6.30;2.20;;;;;19.00;96730.40;;;;110967;1250;41931;-71
2022/08/22 00:08:35;;;;;;;5.90;2.40;;;;;19.00;96731.40;;;;110831;1250;41133;-71
2022/08/22 00:11:14;;;;;;;5.40;2.20;;;;;19.00;96725.80;;;;110762;1250;41143;-71
2022/08/22 00:13:52;;;;;;;5.70;2.20;;;;;19.10;96724.20;;;;110919;1250;42506;-71
2022/08/22 00:16:57;;;;;;;5.20;2.20;;;;;19.10;96714.80;;;;110599;1252;42254;-71
2022/08/22 00:19:45;;;;;;;4.80;1.90;;;;;19.10;96712.80;;;;110683;1250;41151;-71
2022/08/22 00:22:17;;;;;;;8.10;2.20;;;;;19.04;96713.20;;;;110956;1250;41626;-70
2022/08/22 00:25:14;;;;;;;3.90;1.90;;;;;19.00;96709.40;;;;110956;1250;41665;-71
2022/08/22 00:28:08;;;;;;;5.40;1.90;;;;;19.00;96711.40;;;;110877;1250;41157;-71
2022/08/22 00:31:01;;;;;;;4.70;2.00;;;;;19.00;96709.80;;;;110638;1252;41189;-71
2022/08/22 00:33:59;;;;;;;4.00;1.80;;;;;19.00;96709.60;;;;110814;1250;41791;-71
2022/08/22 00:36:39;;;;;;;5.00;2.00;;;;;19.00;96708.00;;;;110796;1251;41177;-72
2022/08/22 00:39:15;;;;;;;4.80;2.10;;;;;19.00;96713.20;;;;110584;1251;41150;-72
2022/08/22 00:41:54;;;;;;;3.90;1.80;;;;;19.00;96710.60;;;;110719;1250;41185;-71
2022/08/22 00:44:58;;;;;;;4.80;2.10;;;;;19.00;96708.00;;;;110965;1250;41157;-71
2022/08/22 00:47:44;;;;;;;5.60;2.20;;;;;19.00;96711.40;;;;110986;1250;41467;-71
2022/08/22 00:50:28;;;;;;;6.40;2.30;;;;;19.00;96709.00;;;;110973;1250;41274;-71
2022/08/22 00:53:01;;;;;;;8.60;2.90;;;;;19.00;96713.80;;;;110820;1249;42537;-71
2022/08/22 00:55:39;;;;;;;7.40;2.90;;;;;19.00;96714.60;;;;110934;1250;41748;-72
2022/08/22 00:58:33;;;;;;;7.80;2.80;;;;;19.00;96717.20;;;;110986;1250;41224;-71
2022/08/22 01:01:10;;;;;;;5.70;2.60;;;;;18.92;96722.60;;;;110737;1251;42093;-70
2022/08/22 01:03:49;;;;;;;7.50;2.50;;;;;18.90;96725.00;;;;110928;1250;41141;-70
2022/08/22 01:06:39;;;;;;;4.60;2.10;;;;;18.80;96723.00;;;;110625;1253;41156;-71
2022/08/22 01:09:40;;;;;;;5.30;2.00;;;;;18.80;96721.40;;;;110564;1254;41266;-72
2022/08/22 01:12:40;;;;;;;4.90;1.90;;;;;18.80;96724.40;;;;110507;1253;41260;-72
2022/08/22 01:15:18;;;;;;;5.20;2.20;;;;;18.80;96724.20;;;;110534;1251;41173;-71
2022/08/22 01:18:09;;;;;;;6.60;2.70;;;;;18.80;96724.20;;;;110566;1253;42392;-71
2022/08/22 01:21:01;;;;;;;6.20;2.20;;;;;18.80;96725.80;;;;110621;1252;41226;-71
2022/08/22 01:23:57;;;;;;;4.60;1.90;;;;;18.78;96728.20;;;;110655;1252;41362;-70
2022/08/22 01:26:38;;;;;;;4.80;2.20;;;;;18.70;96729.60;;;;110445;1253;41795;-72
2022/08/22 01:29:29;;;;;;;5.50;2.40;;;;;18.70;96724.20;;;;110463;1254;41142;-71
2022/08/22 01:32:27;;;;;;;6.40;2.60;;;;;18.68;96725.40;;;;110435;1254;41771;-70
2022/08/22 01:34:58;;;;;;;7.30;2.50;;;;;18.60;96729.40;;;;110503;1254;41162;-70
2022/08/22 01:37:31;;;;;;;5.50;2.20;;;;;18.60;96732.80;;;;110662;1254;41524;-71
2022/08/22 01:40:45;;;;;;;5.50;2.40;;;;;18.60;96734.60;;;;110665;1253;41165;-70
2022/08/22 01:43:28;;;;;;;7.30;2.50;;;;;18.50;96734.60;;;;110286;1257;41268;-71
2022/08/22 01:46:31;;;;;;;6.20;2.50;;;;;18.50;96734.20;;;;110681;1254;41940;-71
2022/08/22 01:49:15;;;;;;;4.90;2.30;;;;;18.50;96734.60;;;;110667;1252;42175;-70
2022/08/22 01:51:53;;;;;;;4.60;2.20;;;;;18.50;96733.60;;;;110541;1254;42293;-71
2022/08/22 01:54:47;;;;;;;6.90;2.00;;;;;18.50;96737.80;;;;110575;1253;41374;-71
2022/08/22 01:57:21;;;;;;;5.10;2.00;;;;;18.50;96739.60;;;;110535;1254;41423;-71
2022/08/22 01:59:53;;;;;;;5.30;2.20;;;;;18.50;96734.80;;;;110595;1252;41285;-70
2022/08/22 02:02:26;;;;;;;5.50;2.30;;;;;18.40;96733.00;;;;110552;1254;41166;-71
2022/08/22 02:05:18;;;;;;;5.80;2.10;;;;;18.40;96730.40;;;;110678;1252;41269;-70
2022/08/22 02:08:05;;;;;;;6.70;2.10;;;;;18.40;96732.40;;;;110753;1249;41273;-70
2022/08/22 02:10:42;;;;;;;4.60;2.10;;;;;18.40;96736.00;;;;110778;1250;41265;-71
2022/08/22 02:13:14;;;;;;;5.20;2.30;;;;;18.36;96739.40;;;;110646;1250;41623;-71
2022/08/22 02:15:53;;;;;;;;;;;;;18.30;96734.80;;;;110666;1250;41258;-71
2022/08/22 02:18:28;;;;;;;4.90;2.00;;;;;18.30;96739.00;;;;110601;1250;41701;-70
2022/08/22 02:21:14;;;;;;;8.30;3.10;;;;;18.20;96739.80;;;;110608;1251;41283;-71
2022/08/22 02:23:53;;;;;;;12.10;3.20;;;;;18.30;96752.40;;;;110833;1250;41281;-71
2022/08/22 02:26:52;;;;;;;8.40;3.10;;;;;18.30;96750.40;;;;110961;1250;41272;-71
2022/08/22 02:29:35;;;;;;;6.00;2.40;;;;;18.20;96754.80;;;;110857;1250;42415;-70
2022/08/22 02:32:19;;;;;;;4.80;2.20;;;;;18.10;96750.80;;;;110856;1250;41138;-71
2022/08/22 02:35:13;;;;;;;4.80;2.20;;;;;18.10;96744.80;;;;110873;1250;41320;-71
2022/08/22 02:37:46;;;;;;;6.30;2.20;;;;;18.10;96746.60;;;;110801;1250;41266;-71
2022/08/22 02:40:26;;;;;;;5.70;2.20;;;;;18.08;96746.80;;;;110762;1250;41206;-71
2022/08/22 02:42:56;;;;;;;4.90;2.20;;;;;18.00;96744.40;;;;110640;1251;41257;-71
2022/08/22 02:45:29;;;;;;;6.50;2.60;;;;;18.00;96744.00;;;;110779;1250;42166;-71
2022/08/22 02:48:18;;;;;;;7.30;2.40;;;;;18.00;96735.20;;;;110796;1250;41258;-71
2022/08/22 02:50:55;;;;;;;6.00;2.30;;;;;18.00;96724.40;;;;110976;1250;41160;-71
2022/08/22 02:53:53;;;;;;;5.80;2.10;;;;;18.00;96725.60;;;;110892;1250;41628;-71
2022/08/22 02:56:40;;;;;;;5.60;2.60;;;;;18.00;96730.40;;;;110872;1250;42180;-71
2022/08/22 02:59:26;;;;;;;4.50;2.20;;;;;17.90;96730.60;;;;110730;1250;42504;-69
2022/08/22 03:01:57;;;;;;;6.10;2.20;;;;;17.90;96734.20;;;;110640;1250;41271;-70
2022/08/22 03:04:31;;;;;;;5.60;2.30;;;;;17.90;96735.60;;;;110618;1250;41160;-70
2022/08/22 03:07:20;;;;;;;6.10;2.70;;;;;17.90;96742.20;;;;110686;1250;42205;-70
2022/08/22 03:10:13;;;;;;;5.70;2.50;;;;;17.90;96734.60;;;;110582;1252;41584;-70
2022/08/22 03:13:00;;;;;;;7.20;2.50;;;;;17.90;96737.20;;;;110649;1253;41153;-71
2022/08/22 03:15:42;;;;;;;6.70;2.80;;;;;17.88;96743.00;;;;110610;1250;42583;-70
2022/08/22 03:18:20;;;;;;;6.30;2.50;;;;;17.80;96746.40;;;;110552;1254;41401;-71
2022/08/22 03:21:08;;;;;;;5.70;2.40;;;;;17.80;96741.80;;;;110596;1251;41963;-71
2022/08/22 03:24:15;;;;;;;4.80;2.10;;;;;17.80;96737.60;;;;110636;1251;41722;-71
2022/08/22 03:27:12;;;;;;;4.40;2.00;;;;;17.72;96738.20;;;;110166;1257;41492;-71
2022/08/22 03:29:49;;;;;;;6.20;2.70;;;;;17.70;96742.20;;;;110559;1251;41254;-70
2022/08/22 03:32:24;;;;;;;5.80;2.40;;;;;17.70;96742.80;;;;110569;1252;41406;-70
2022/08/22 03:35:07;;;;;;;6.10;2.30;;;;;17.70;96744.60;;;;110602;1253;41572;-71
2022/08/22 03:37:42;;;;;;;7.30;3.10;;;;;17.70;96743.80;;;;110565;1251;41151;-70
2022/08/22 03:40:26;;;;;;;9.20;3.50;;;;;17.70;96751.40;;;;110541;1251;41145;-70
2022/08/22 03:43:18;;;;;;;7.60;3.00;;;;;17.66;96755.00;;;;110564;1251;41185;-70
2022/08/22 03:46:36;;;;;;;9.40;3.60;;;;;17.60;96760.20;;;;110550;1251;41145;-70
2022/08/22 03:49:06;;;;;;;7.40;3.30;;;;;17.60;96757.40;;;;110273;1252;41160;-70
2022/08/22 03:51:40;;;;;;;7.30;3.10;;;;;17.60;96759.80;;;;110538;1252;42089;-71
2022/08/22 03:54:47;;;;;;;7.70;3.40;;;;;17.60;96759.60;;;;110534;1252;41597;-71
2022/08/22 03:57:23;;;;;;;9.10;3.60;;;;;17.52;96757.80;;;;110559;1253;41145;-73
2022/08/22 04:00:10;;;;;;;6.80;2.70;;;;;17.50;96754.60;;;;110877;1250;41420;-71
2022/08/22 04:03:15;;;;;;;6.50;2.60;;;;;17.58;96751.60;;;;110593;1251;41396;-70
2022/08/22 04:06:01;;;;;;;7.20;2.80;;;;;17.60;96749.00;;;;110824;1250;41166;-70
2022/08/22 04:08:51;;;;;;;7.00;2.90;;;;;17.64;96741.20;;;;110887;1250;41178;-70
2022/08/22 04:11:43;;;;;;;7.30;3.30;;;;;17.70;96744.60;;;;110764;1251;41644;-70
2022/08/22 04:14:34;;;;;;;8.20;3.20;;;;;17.70;96740.80;;;;110771;1251;41941;-71
2022/08/22 04:17:22;;;;;;;8.70;3.00;;;;;17.76;96738.40;;;;110614;1253;41161;-70
2022/08/22 04:20:10;;;;;;;6.70;2.60;;;;;17.80;96738.20;;;;110668;1249;41149;-70
2022/08/22 04:22:58;;;;;;;7.30;3.10;;;;;17.80;96746.20;;;;110700;1248;41264;-70
2022/08/22 04:25:37;;;;;;;6.70;2.70;;;;;17.80;96746.40;;;;110581;1251;41600;-70
2022/08/22 04:28:21;;;;;;;6.10;2.40;;;;;17.80;96750.00;;;;110312;1253;41147;-71
2022/08/22 04:31:18;;;;;;;6.10;2.50;;;;;17.90;96755.80;;;;110631;1250;41603;-71
2022/08/22 04:33:57;;;;;;;8.70;3.20;;;;;18.00;96749.60;;;;110795;1250;41262;-71
2022/08/22 04:36:44;;;;;;;6.10;2.50;;;;;18.00;96747.60;;;;110943;1250;42380;-71
2022/08/22 04:39:18;;;;;;;7.40;3.20;;;;;18.10;96751.00;;;;110867;1248;41406;-71
2022/08/22 04:42:05;;;;;;;8.00;2.90;;;;;18.10;96748.60;;;;110658;1250;41169;-71
2022/08/22 04:45:01;;;;;;;7.40;2.70;;;;;18.20;96750.60;;;;110814;1248;41155;-71
2022/08/22 04:47:41;;;;;;;7.20;3.10;;;;;18.30;96750.40;;;;110635;1251;42922;-71
2022/08/22 04:50:13;;;;;;;7.00;3.00;;;;;18.30;96752.80;;;;110634;1251;41693;-71
2022/08/22 04:52:48;;;;;;;6.00;2.70;;;;;18.30;96750.20;;;;110725;1251;41885;-71
2022/08/22 04:55:41;;;;;;;5.20;2.30;;;;;18.40;96747.80;;;;109863;1250;41638;-71
2022/08/22 04:58:29;;;;;;;6.70;2.60;;;;;18.50;96748.80;;;;110816;1250;42182;-71
2022/08/22 05:01:10;;;;;;;7.00;2.80;;;;;18.60;96746.20;;;;110780;1249;41329;-71
2022/08/22 05:03:53;;;;;;;5.80;2.80;;;;;18.70;96747.60;;;;110786;1251;41285;-71
2022/08/22 05:06:25;;;;;;;7.30;3.10;;;;;18.80;96747.20;;;;110734;1251;41147;-71
2022/08/22 05:08:58;;;;;;;7.30;2.90;;;;;18.80;96750.80;;;;110909;1250;41216;-72
2022/08/22 05:11:28;;;;;;;6.60;2.60;;;;;18.90;96745.00;;;;110931;1250;41633;-72
2022/08/22 05:14:03;;;;;;;7.00;2.60;;;;;19.08;96748.00;;;;110958;1250;41247;-71
2022/08/22 05:16:40;;;;;;;9.20;3.10;;;;;19.20;96751.80;;;;110622;1251;42200;-71
2022/08/22 05:19:14;;;;;;;7.30;2.80;;;;;19.30;96758.00;;;;110867;1250;41224;-70
2022/08/22 05:21:46;;;;;;;5.90;2.30;;;;;19.40;96755.80;;;;110763;1250;41253;-71
2022/08/22 05:24:38;;;;;;;9.60;2.70;;;;;19.54;96750.60;;;;110676;1250;41137;-71
2022/08/22 05:27:30;;;;;;;6.70;2.50;;;;;19.80;96746.40;;;;110601;1249;41681;-69
2022/08/22 05:30:10;;;;;;;5.80;2.30;;;;;20.00;96757.40;;;;110581;1249;41266;-70
2022/08/22 05:32:58;;;;;;;5.90;2.60;;;;;20.16;96759.40;;;;110665;1250;41269;-71
2022/08/22 05:35:35;;;;;;;5.80;2.40;;;;;20.30;96764.20;;;;110944;1249;41150;-70
2022/08/22 05:38:06;;;;;;;8.20;2.90;;;;;20.40;96759.40;;;;110863;1250;41771;-71
2022/08/22 05:40:36;;;;;;;6.10;2.30;;;;;20.40;96760.20;;;;110650;1250;41431;-70
2022/08/22 05:43:06;;;;;;;3.90;1.90;;;;;20.50;96764.80;;;;110926;1250;41637;-71
2022/08/22 05:45:35;;;;;;;;;;;;;20.60;96765.00;;;;110614;1250;41269;-71
2022/08/22 05:48:08;;;;;;;4.90;2.00;;;;;20.80;96761.00;;;;110772;1250;41388;-69
2022/08/22 05:50:43;;;;;;;6.50;2.30;;;;;21.00;96758.80;;;;110955;1250;42139;-70
2022/08/22 05:53:35;;;;;;;6.90;2.70;;;;;21.30;96757.80;;;;110958;1250;41184;-70
2022/08/22 05:56:06;;;;;;;4.80;2.10;;;;;21.50;96759.00;;;;110958;1250;41760;-70
2022/08/22 05:58:38;;;;;;;4.80;2.00;;;;;21.72;96752.40;;;;110717;1250;41143;-70
2022/08/22 06:01:22;;;;;;;5.50;2.20;;;;;22.62;96732.40;;;;110780;1250;41266;-71
2022/08/22 06:04:00;;;;;;;7.20;2.90;;;;;23.94;96740.40;;;;110648;1249;41451;-71
2022/08/22 06:06:33;;;;;;;5.10;2.30;;;;;25.08;96738.40;;;;110851;1248;41162;-71
2022/08/22 06:09:27;;;;;;;6.20;2.20;;;;;25.98;96735.20;;;;110568;1250;42394;-70
2022/08/22 06:12:12;;;;;;;5.70;2.40;;;;;27.04;96735.80;;;;110887;1250;41735;-71
2022/08/22 06:15:03;;;;;;;4.70;2.20;;;;;27.72;96736.40;;;;110763;1249;41877;-71
2022/08/22 06:17:44;;;;;;;5.10;2.20;;;;;28.40;96736.80;;;;110568;1251;41717;-71
2022/08/22 06:20:29;;;;;;;4.50;2.20;;;;;29.00;96735.60;;;;110674;1250;41643;-71
2022/08/22 06:23:01;;;;;;;5.10;2.10;;;;;29.50;96749.60;;;;110637;1251;42389;-71
2022/08/22 06:25:32;;;;;;;6.30;2.20;;;;;29.70;96748.60;;;;110777;1249;41262;-71
2022/08/22 06:28:06;;;;;;;5.80;2.20;;;;;29.42;96735.00;;;;110612;1250;41625;-71
2022/08/22 06:30:36;;;;;;;5.30;2.10;;;;;29.90;96742.60;;;;110737;1249;41637;-71
2022/08/22 06:33:10;;;;;;;4.70;2.00;;;;;30.50;96743.60;;;;110592;1249;42148;-71
2022/08/22 06:38:32;;;;;;;6.70;2.50;;;;;32.06;96741.00;;;;110675;1250;41128;-71
2022/08/22 06:41:05;;;;;;;7.70;2.20;;;;;32.50;96739.40;;;;110713;1251;41603;-71
2022/08/22 06:43:40;;;;;;;6.20;2.30;;;;;33.00;96742.00;;;;110541;1250;41603;-71
2022/08/22 06:46:10;;;;;;;7.30;2.10;;;;;32.92;96749.00;;;;110595;1250;41160;-71
2022/08/22 06:48:40;;;;;;;6.90;2.00;;;;;33.20;96754.80;;;;110571;1251;41596;-71
2022/08/22 06:51:10;;;;;;;7.20;2.30;;;;;33.06;96760.80;;;;110402;1254;41780;-72
2022/08/22 06:53:45;;;;;;;5.60;2.00;;;;;32.60;96766.40;;;;110602;1250;41590;-72
2022/08/22 06:56:31;;;;;;;5.30;2.00;;;;;32.20;96768.20;;;;110618;1251;42251;-74
2022/08/22 06:59:02;;;;;;;5.00;2.10;;;;;31.94;96767.60;;;;110657;1252;41310;-72
2022/08/22 07:01:37;;;;;;;5.60;2.30;;;;;31.80;96768.00;;;;110672;1250;41651;-72
2022/08/22 07:04:08;;;;;;;5.90;2.20;;;;;32.14;96771.40;;;;110941;1250;41254;-73
2022/08/22 07:06:49;;;;;;;6.30;1.90;;;;;32.82;96770.80;;;;110984;1250;41973;-72
2022/08/22 07:09:30;;;;;;;6.70;2.60;;;;;33.82;96768.00;;;;110668;1249;41711;-72
2022/08/22 07:12:01;;;;;;;6.60;2.30;;;;;33.90;96765.80;;;;110666;1250;41147;-72
2022/08/22 07:14:40;;;;;;;6.40;2.40;;;;;33.84;96770.60;;;;110769;1249;42206;-72
2022/08/22 07:17:20;;;;;;;5.80;2.10;;;;;33.60;96771.60;;;;110689;1251;41251;-72
2022/08/22 07:20:05;;;;;;;6.20;2.40;;;;;33.40;96773.20;;;;110899;1251;41342;-73
2022/08/22 07:22:36;;;;;;;6.60;2.80;;;;;34.30;96768.60;;;;110659;1249;41422;-71
2022/08/22 07:25:09;;;;;;;6.00;2.30;;;;;34.08;96776.40;;;;110928;1249;41151;-72
2022/08/22 07:27:58;;;;;;;8.80;3.00;;;;;33.30;96779.40;;;;110735;1250;42379;-72
2022/08/22 07:30:44;;;;;;;9.60;3.20;;;;;32.46;96782.20;;;;110685;1250;41146;-72
2022/08/22 07:33:38;;;;;;;5.80;2.50;;;;;31.32;96784.00;;;;110962;1248;41153;-73
2022/08/22 07:36:49;;;;;;;5.90;2.30;;;;;31.60;96782.40;;;;110930;1249;41155;-72
2022/08/22 07:39:20;;;;;;;;;;;;;32.10;96783.00;;;;110533;1250;42325;-72
2022/08/22 07:42:10;;;;;;;5.50;2.20;;;;;32.28;96775.60;;;;110603;1250;41612;-71
2022/08/22 07:44:57;;;;;;;8.60;3.10;;;;;33.16;96779.60;;;;110599;1250;41448;-72
2022/08/22 07:47:51;;;;;;;8.10;2.70;;;;;31.94;96787.80;;;;110583;1250;41307;-72
2022/08/22 07:50:27;;;;;;;7.80;2.90;;;;;31.32;96794.00;;;;110320;1253;41958;-71
2022/08/22 07:53:07;;;;;;;5.60;2.50;;;;;30.40;96799.40;;;;110648;1252;41786;-72
2022/08/22 07:55:36;;;;;;;;;;;;;30.20;96797.20;;;;110543;1251;42158;-72
2022/08/22 07:58:12;;;;;;;6.60;2.50;;;;;30.48;96796.60;;;;110461;1251;41263;-72
2022/08/22 08:00:44;;;;;;;9.60;3.00;;;;;30.78;96797.60;;;;110577;1252;41229;-72
2022/08/22 08:03:13;;;;;;;7.80;3.00;;;;;30.90;96798.60;;;;110713;1249;41690;-72
2022/08/22 08:05:44;;;;;;;9.90;3.40;;;;;30.88;96799.00;;;;110557;1252;41172;-72
2022/08/22 08:08:40;;;;;;;6.40;2.70;;;;;30.82;96798.20;;;;110567;1250;41163;-72
2022/08/22 08:11:11;;;;;;;10.70;3.60;;;;;31.00;96802.40;;;;110518;1251;41278;-73
2022/08/22 08:13:43;;;;;;;8.40;3.30;;;;;30.74;96802.60;;;;110568;1252;41176;-72
2022/08/22 08:16:18;;;;;;;6.90;3.00;;;;;30.20;96803.80;;;;110599;1252;41147;-73
2022/08/22 08:18:48;;;;;;;10.40;3.40;;;;;29.70;96806.40;;;;110628;1251;41168;-71
2022/08/22 08:21:28;;;;;;;6.20;2.50;;;;;29.34;96807.00;;;;110569;1252;42548;-73
2022/08/22 08:23:59;;;;;;;9.60;3.20;;;;;29.20;96809.80;;;;110547;1253;41285;-73
2022/08/22 08:28:32;;;;;;;8.60;3.50;;;;;29.08;96808.20;;;;110537;1252;41495;-71
2022/08/22 08:29:30;;;;;;;7.60;3.20;;;;;28.88;96805.60;;;;110634;1252;41164;-72
2022/08/22 08:32:00;;;;;;;8.30;3.80;;;;;28.80;96803.40;;;;110338;1254;41176;-72
2022/08/22 08:34:31;;;;;;;13.10;3.80;;;;;28.80;96804.00;;;;110581;1251;42257;-73
2022/08/22 08:37:15;;;;;;;7.70;3.30;;;;;28.60;96805.40;;;;110553;1252;41262;-72
2022/08/22 08:39:50;;;;;;;6.80;2.80;;;;;28.50;96805.80;;;;110590;1252;41323;-73
2022/08/22 08:45:53;;;;;;;7.90;3.30;;;;;29.00;96800.40;;;;110509;1252;41139;-72
2022/08/22 08:48:37;;;;;;;8.40;4.00;;;;;29.10;96797.00;;;;110749;1249;41193;-72
2022/08/22 08:51:40;;;;;;;8.80;3.20;;;;;29.20;96797.80;;;;110816;1250;42051;-72
2022/08/22 08:54:18;;;;;;;5.30;2.20;;;;;29.72;96791.60;;;;110685;1249;41145;-71
2022/08/22 08:57:14;;;;;;;7.10;3.20;;;;;30.74;96789.20;;;;110723;1251;42217;-73
2022/08/22 08:59:47;;;;;;;6.40;2.70;;;;;31.30;96799.60;;;;110583;1251;41518;-72
2022/08/22 09:02:28;;;;;;;8.00;2.80;;;;;31.80;96796.60;;;;110616;1249;41158;-73
2022/08/22 09:05:14;;;;;;;7.20;2.40;;;;;32.30;96795.60;;;;110745;1250;41146;-73
2022/08/22 09:08:01;;;;;;;6.30;2.30;;;;;32.76;96787.20;;;;110864;1249;41140;-72
2022/08/22 09:11:01;;;;;;;9.60;3.30;;;;;33.10;96787.80;;;;110728;1249;41916;-73
2022/08/22 09:13:40;;;;;;;8.20;3.30;;;;;31.84;96784.20;;;;110732;1249;41152;-72
2022/08/22 09:16:47;;;;;;;8.40;2.70;;;;;31.46;96781.20;;;;110610;1250;41174;-73
2022/08/22 09:19:29;;;;;;;7.80;2.40;;;;;31.28;96786.60;;;;110603;1250;41713;-73
2022/08/22 09:22:13;;;;;;;7.10;2.70;;;;;31.86;96778.80;;;;110663;1249;41611;-72
2022/08/22 09:25:15;;;;;;;8.60;2.80;;;;;32.28;96776.20;;;;110634;1248;42213;-72
2022/08/22 09:28:12;;;;;;;7.90;3.30;;;;;32.70;96777.20;;;;110583;1251;41308;-73
2022/08/22 09:30:59;;;;;;;11.80;2.70;;;;;32.90;96779.20;;;;110849;1251;41154;-72
2022/08/22 09:33:38;;;;;;;9.00;2.70;;;;;32.82;96772.40;;;;110697;1250;41613;-73
2022/08/22 09:36:17;;;;;;;8.90;2.90;;;;;32.66;96771.00;;;;110600;1250;41617;-73
2022/08/22 09:38:58;;;;;;;6.70;2.90;;;;;33.00;96768.00;;;;110617;1250;41598;-73
2022/08/22 09:41:35;;;;;;;6.00;2.50;;;;;33.10;96765.20;;;;110921;1248;41156;-73
2022/08/22 09:44:16;;;;;;;7.00;2.50;;;;;33.00;96765.80;;;;110788;1249;41257;-73
2022/08/22 09:47:01;;;;;;;8.20;3.00;;;;;33.50;96763.20;;;;110673;1249;41161;-74
2022/08/22 09:50:00;;;;;;;5.90;2.40;;;;;33.20;96756.20;;;;110769;1252;41172;-73
2022/08/22 09:53:27;;;;;;;9.10;3.00;;;;;33.32;96747.60;;;;110794;1250;42234;-73
2022/08/22 09:56:11;;;;;;;7.90;2.30;;;;;34.00;96740.60;;;;110500;1250;41157;-73
2022/08/22 09:58:54;;;;;;;6.90;2.80;;;;;33.60;96744.40;;;;110798;1251;41259;-73
2022/08/22 10:01:47;;;;;;;7.10;2.40;;;;;33.12;96739.00;;;;110716;1249;41594;-74
2022/08/22 10:04:51;;;;;;;10.20;3.10;;;;;34.10;96737.20;;;;110765;1250;41975;-74
2022/08/22 10:07:29;;;;;;;6.60;2.60;;;;;33.62;96742.40;;;;110543;1249;41142;-72
2022/08/22 10:10:24;;;;;;;6.80;2.70;;;;;32.62;96746.40;;;;110709;1249;42257;-73
2022/08/22 10:12:57;;;;;;;7.90;2.90;;;;;31.92;96744.80;;;;110597;1251;41178;-73
2022/08/22 10:15:49;;;;;;;8.00;3.20;;;;;31.40;96739.80;;;;110797;1249;41301;-73
2022/08/22 10:18:39;;;;;;;7.40;2.40;;;;;30.30;96743.40;;;;110913;1249;41161;-72
2022/08/22 10:21:26;;;;;;;5.60;2.60;;;;;30.40;96744.60;;;;110663;1251;41895;-72
2022/08/22 10:24:05;;;;;;;7.50;2.90;;;;;30.60;96746.00;;;;110563;1251;41136;-73
2022/08/22 10:26:52;;;;;;;8.70;2.80;;;;;30.78;96754.60;;;;110593;1251;41275;-72
2022/08/22 10:29:44;;;;;;;8.50;2.70;;;;;30.72;96750.00;;;;110674;1250;41196;-73
2022/08/22 10:32:39;;;;;;;9.40;2.60;;;;;31.28;96742.60;;;;110639;1251;42509;-72
2022/08/22 10:35:17;;;;;;;7.70;2.40;;;;;31.48;96740.20;;;;110593;1250;41268;-73
2022/08/22 10:37:57;;;;;;;7.30;2.60;;;;;31.76;96734.60;;;;110806;1250;41137;-73
2022/08/22 10:40:39;;;;;;;9.90;2.80;;;;;32.12;96737.80;;;;110648;1251;41166;-73
2022/08/22 10:43:29;;;;;;;9.70;2.90;;;;;32.88;96732.40;;;;110830;1249;41264;-73
2022/08/22 10:46:17;;;;;;;8.20;2.80;;;;;32.26;96742.80;;;;110629;1250;41239;-73
2022/08/22 10:48:58;;;;;;;7.20;2.70;;;;;31.34;96744.60;;;;110584;1249;42004;-73
2022/08/22 10:51:39;;;;;;;9.60;2.70;;;;;31.40;96736.20;;;;110651;1251;41546;-73
2022/08/22 10:54:13;;;;;;;7.30;2.60;;;;;30.86;96739.20;;;;110644;1250;42344;-73
2022/08/22 10:56:59;;;;;;;5.70;2.10;;;;;31.08;96733.40;;;;110713;1248;41751;-72
2022/08/22 11:00:01;;;;;;;10.30;2.30;;;;;31.62;96729.20;;;;110824;1248;41184;-72
2022/08/22 11:03:01;;;;;;;8.60;2.50;;;;;31.66;96728.40;;;;110703;1249;41253;-72
2022/08/22 11:05:37;;;;;;;7.40;2.60;;;;;32.14;96725.80;;;;110631;1249;41724;-72
2022/08/22 11:08:20;;;;;;;8.90;3.30;;;;;32.86;96717.00;;;;110608;1250;41776;-72
2022/08/22 11:11:13;;;;;;;8.30;3.00;;;;;33.50;96720.00;;;;110672;1249;41586;-72
2022/08/22 11:14:10;;;;;;;9.70;2.70;;;;;33.04;96718.20;;;;110733;1248;41887;-73
2022/08/22 11:16:56;;;;;;;5.30;2.20;;;;;33.34;96716.60;;;;110616;1249;41187;-73
2022/08/22 11:19:46;;;;;;;8.90;2.40;;;;;34.56;96713.40;;;;110665;1249;42214;-72
2022/08/22 11:22:52;;;;;;;6.30;2.30;;;;;35.10;96711.80;;;;110615;1251;41983;-73
2022/08/22 11:25:27;;;;;;;5.50;2.10;;;;;36.72;96715.80;;;;110787;1250;41610;-73
2022/08/22 11:28:16;;;;;;;4.90;2.00;;;;;35.42;96719.20;;;;110678;1249;41142;-73
2022/08/22 11:31:09;;;;;;;6.50;2.70;;;;;34.46;96717.20;;;;110676;1249;41273;-73
2022/08/22 11:34:06;;;;;;;8.10;2.30;;;;;33.44;96728.60;;;;110627;1249;41168;-72
2022/08/22 11:36:39;;;;;;;11.30;2.80;;;;;32.84;96721.40;;;;110669;1249;41373;-73
2022/08/22 11:39:43;;;;;;;5.40;2.10;;;;;32.28;96720.00;;;;110747;1249;41264;-72
2022/08/22 11:42:39;;;;;;;5.10;2.30;;;;;32.20;96715.20;;;;110660;1252;41261;-73
2022/08/22 11:45:27;;;;;;;7.40;2.30;;;;;31.98;96711.40;;;;110716;1251;42380;-72
2022/08/22 11:48:10;;;;;;;8.60;2.40;;;;;31.74;96709.00;;;;110752;1249;41630;-72
2022/08/22 11:50:47;;;;;;;6.30;2.30;;;;;31.70;96702.80;;;;110941;1249;41262;-74
2022/08/22 11:53:42;;;;;;;9.40;2.20;;;;;32.30;96696.00;;;;110730;1249;41133;-74
2022/08/22 11:56:52;;;;;;;8.30;2.30;;;;;34.00;96684.40;;;;110662;1250;41147;-74
2022/08/22 11:59:55;;;;;;;9.10;2.70;;;;;35.36;96679.60;;;;110312;1252;41221;-74
2022/08/22 12:02:44;;;;;;;6.30;2.30;;;;;35.42;96674.40;;;;110577;1251;41038;-73
2022/08/22 12:05:21;;;;;;;8.40;2.20;;;;;34.60;96682.00;;;;110615;1252;41151;-72
2022/08/22 12:08:01;;;;;;;5.50;2.00;;;;;34.80;96682.40;;;;110611;1249;41278;-72
2022/08/22 12:10:38;;;;;;;5.40;2.00;;;;;34.12;96680.20;;;;110633;1249;41143;-73
2022/08/22 12:13:13;;;;;;;6.50;2.30;;;;;33.80;96686.20;;;;110680;1249;41908;-72
2022/08/22 12:16:06;;;;;;;5.90;2.30;;;;;33.30;96689.80;;;;110501;1252;41163;-72
2022/08/22 12:19:02;;;;;;;8.20;2.20;;;;;33.20;96705.00;;;;110581;1251;41611;-73
2022/08/22 12:21:40;;;;;;;7.00;2.70;;;;;32.80;96708.00;;;;110787;1249;41331;-72
2022/08/22 12:24:58;;;;;;;7.80;2.70;;;;;32.60;96718.00;;;;110755;1250;41156;-74
2022/08/22 12:27:54;;;;;;;6.40;2.30;;;;;31.94;96719.80;;;;110668;1249;42284;-73
2022/08/22 12:30:47;;;;;;;6.00;2.20;;;;;32.00;96713.20;;;;110707;1250;41288;-74
2022/08/22 12:34:00;;;;;;;5.40;2.20;;;;;32.28;96703.20;;;;110947;1250;41157;-74
2022/08/22 12:36:41;;;;;;;7.40;2.40;;;;;33.10;96684.60;;;;110336;1256;41940;-72
2022/08/22 12:39:35;;;;;;;6.80;2.40;;;;;33.96;96671.00;;;;110204;1255;41142;-72
2022/08/22 12:42:22;;;;;;;6.50;2.00;;;;;35.14;96678.00;;;;110578;1249;41640;-72
2022/08/22 12:45:04;;;;;;;7.60;2.30;;;;;34.20;96677.00;;;;110648;1249;41276;-72
2022/08/22 12:47:44;;;;;;;6.00;1.90;;;;;34.16;96676.60;;;;110655;1249;41172;-71
2022/08/22 12:50:18;;;;;;;8.70;2.20;;;;;33.62;96676.80;;;;110757;1249;41153;-73
2022/08/22 12:52:57;;;;;;;9.00;2.40;;;;;33.18;96673.20;;;;110541;1252;41481;-72
2022/08/22 12:55:36;;;;;;;6.20;2.20;;;;;33.44;96675.40;;;;110559;1252;41160;-73
2022/08/22 12:58:23;;;;;;;4.60;2.00;;;;;33.94;96675.00;;;;110561;1250;41593;-73
2022/08/22 13:00:58;;;;;;;6.70;2.50;;;;;34.30;96672.20;;;;110552;1251;41656;-72
2022/08/22 13:03:31;;;;;;;7.20;2.70;;;;;34.14;96674.40;;;;110632;1251;41243;-72
2022/08/22 13:06:05;;;;;;;5.00;2.20;;;;;33.78;96682.60;;;;110693;1249;41151;-73
2022/08/22 13:08:39;;;;;;;7.20;2.50;;;;;33.20;96684.20;;;;110642;1252;41159;-73
2022/08/22 13:11:11;;;;;;;7.80;2.60;;;;;33.30;96684.80;;;;110631;1252;41152;-73
2022/08/22 13:13:59;;;;;;;6.10;2.20;;;;;32.72;96696.80;;;;110513;1249;41331;-73
2022/08/22 13:16:44;;;;;;;8.50;2.00;;;;;32.42;96696.80;;;;110842;1249;41264;-74
2022/08/22 13:19:21;;;;;;;6.50;2.40;;;;;32.20;96707.40;;;;110349;1249;41164;-77
2022/08/22 13:22:07;;;;;;;5.10;2.30;;;;;31.88;96708.80;;;;110871;1250;41259;-74
2022/08/22 13:24:43;;;;;;;8.20;2.30;;;;;31.32;96717.20;;;;110615;1251;41598;-74
2022/08/22 13:27:24;;;;;;;7.20;2.30;;;;;31.30;96719.00;;;;110541;1252;41771;-73
2022/08/22 13:30:06;;;;;;;11.30;2.70;;;;;31.16;96718.00;;;;110994;1250;41258;-72
2022/08/22 13:32:39;;;;;;;6.20;2.40;;;;;31.10;96716.60;;;;110646;1251;41619;-73
2022/08/22 13:35:22;;;;;;;5.40;2.20;;;;;30.82;96712.60;;;;110493;1252;41164;-73